Terminal Aerodrome Forecast
Issued by NWS

Home | Current Version | Previous Version | Text Only | Print | Product List | Glossary On
Versions: 1 2 3 4 5 6 7 8 9 10 11 12 13 14
000
FTUS42 KFFC 292333
TAFFTY
TAF
KFTY 292333Z 3000/3024 33008KT P6SM FEW060 BKN150
      TEMPO 3001/3005 07008KT
     FM300600 32004KT P6SM SKC
     FM301600 31008KT P6SM FEW040
     FM302000 32011KT P6SM SCT250=

USA.gov is the U.S. government's official web portal to all federal, state and local government web resources and services.